Time;durP1;ratioP1;P1;durP2;ratioP2;P2;SDS_P1;SDS_P2;PMS_P1;PMS_P2;Temp;Humidity;BMP_temperature;BMP_pressure;BME280_temperature;BME280_humidity;BME280_pressure;Samples;Min_cycle;Max_cycle;Signal;HPM_P1;HPM_P2
2023/09/25 00:01:04;;;;;;;4.32;2.10;;;;;;;10.69;100.00;101917.34;6027205;28;20026;-65
2023/09/25 00:04:00;;;;;;;5.03;2.10;;;;;;;10.72;100.00;101922.44;6033066;28;20034;-65
2023/09/25 00:06:55;;;;;;;3.63;2.20;;;;;;;10.70;100.00;101924.38;6015844;28;20022;-65
2023/09/25 00:09:51;;;;;;;5.93;2.37;;;;;;;10.74;100.00;101925.81;6026905;28;20031;-65
2023/09/25 00:12:46;;;;;;;6.23;2.50;;;;;;;10.71;100.00;101931.34;6026702;28;20057;-65
2023/09/25 00:15:44;;;;;;;4.13;2.35;;;;;;;10.69;100.00;101917.34;6025592;28;20022;-65
2023/09/25 00:18:39;;;;;;;5.95;2.30;;;;;;;10.76;100.00;101926.53;6026337;28;20037;-65
2023/09/25 00:21:34;;;;;;;3.73;2.07;;;;;;;10.68;100.00;101926.25;6026570;28;20030;-65
2023/09/25 00:24:30;;;;;;;3.97;2.47;;;;;;;10.68;100.00;101941.38;6026349;28;20034;-65
2023/09/25 00:27:25;;;;;;;3.88;2.30;;;;;;;10.67;100.00;101929.91;6025733;28;20548;-65
2023/09/25 00:30:20;;;;;;;6.30;2.63;;;;;;;10.73;100.00;101942.66;6026402;28;20093;-64
2023/09/25 00:33:15;;;;;;;3.70;2.00;;;;;;;10.67;100.00;101934.34;6026463;28;20516;-65
2023/09/25 00:36:11;;;;;;;3.93;2.30;;;;;;;10.55;100.00;101919.34;6025379;28;20040;-65
2023/09/25 00:39:07;;;;;;;4.97;2.20;;;;;;;10.57;100.00;101934.19;6026445;28;20030;-65
2023/09/25 00:42:03;;;;;;;4.25;2.13;;;;;;;10.46;100.00;101914.75;6025998;28;20277;-65
2023/09/25 00:44:58;;;;;;;6.50;2.40;;;;;;;10.55;100.00;101932.63;6025952;28;20394;-65
2023/09/25 00:47:54;;;;;;;5.00;2.47;;;;;;;10.50;100.00;101917.06;6024574;28;20518;-64
2023/09/25 00:50:49;;;;;;;4.75;2.40;;;;;;;10.51;100.00;101939.97;6026010;28;20045;-65
2023/09/25 00:53:45;;;;;;;3.83;2.30;;;;;;;10.43;100.00;101918.50;6025894;28;20072;-65
2023/09/25 00:56:40;;;;;;;5.10;2.47;;;;;;;10.35;100.00;101928.84;6030566;28;20280;-66
2023/09/25 00:59:38;;;;;;;5.17;2.20;;;;;;;10.31;100.00;101921.19;6024849;28;20493;-63
2023/09/25 01:02:34;;;;;;;4.75;2.42;;;;;;;10.42;100.00;101930.06;6024848;28;20301;-63
2023/09/25 01:05:29;;;;;;;3.77;2.03;;;;;;;10.35;100.00;101936.78;6025641;28;20477;-63
2023/09/25 01:08:25;;;;;;;5.28;2.90;;;;;;;10.28;100.00;101938.19;6025048;28;20162;-63
2023/09/25 01:11:20;;;;;;;3.73;2.17;;;;;;;10.18;100.00;101936.34;6025230;28;20080;-63
2023/09/25 01:14:15;;;;;;;5.90;2.17;;;;;;;10.10;100.00;101923.63;6025756;28;20085;-63
2023/09/25 01:17:11;;;;;;;5.40;2.30;;;;;;;10.16;100.00;101939.94;6024972;28;20371;-63
2023/09/25 01:20:11;;;;;;;4.25;2.05;;;;;;;10.09;100.00;101945.78;6025659;28;20030;-64
2023/09/25 01:23:07;;;;;;;4.20;2.53;;;;;;;9.92;100.00;101903.78;6025434;28;20494;-65
2023/09/25 01:26:05;;;;;;;5.43;2.47;;;;;;;10.08;100.00;101931.66;6024440;28;20038;-65
2023/09/25 01:29:00;;;;;;;4.93;2.53;;;;;;;9.95;100.00;101914.97;6025286;28;20440;-65
2023/09/25 01:31:55;;;;;;;5.20;2.50;;;;;;;9.96;100.00;101929.94;6025531;28;20026;-65
2023/09/25 01:34:50;;;;;;;5.18;2.90;;;;;;;9.95;100.00;101930.03;6025229;28;20440;-65
2023/09/25 01:37:48;;;;;;;5.60;2.40;;;;;;;9.83;100.00;101907.94;6025139;28;20026;-65
2023/09/25 01:40:43;;;;;;;5.90;2.35;;;;;;;9.87;100.00;101911.19;6023385;28;20074;-65
2023/09/25 01:43:38;;;;;;;5.47;3.20;;;;;;;9.97;100.00;101912.25;6025463;28;20174;-65
2023/09/25 01:46:34;;;;;;;7.50;3.80;;;;;;;9.98;100.00;101914.75;6024723;28;20034;-65
2023/09/25 01:49:30;;;;;;;5.40;2.80;;;;;;;9.97;100.00;101906.94;6025371;28;20057;-65
2023/09/25 01:52:28;;;;;;;6.10;3.03;;;;;;;9.94;100.00;101904.50;6025088;28;20026;-65
2023/09/25 01:55:27;;;;;;;9.05;2.95;;;;;;;10.00;100.00;101912.00;6025084;28;20034;-65
2023/09/25 01:58:23;;;;;;;9.48;3.10;;;;;;;10.01;100.00;101913.69;6019781;28;20065;-65
2023/09/25 02:01:18;;;;;;;5.80;3.10;;;;;;;9.94;100.00;101907.16;6028749;28;20486;-65
2023/09/25 02:04:13;;;;;;;9.87;3.03;;;;;;;9.88;100.00;101907.59;6029918;28;20030;-65
2023/09/25 02:07:08;;;;;;;8.23;2.77;;;;;;;9.77;100.00;101897.78;6029098;28;20030;-65
2023/09/25 02:10:04;;;;;;;5.50;2.80;;;;;;;9.77;100.00;101900.44;6029546;28;20038;-65
2023/09/25 02:13:00;;;;;;;7.97;2.53;;;;;;;9.80;100.00;101902.03;6029805;28;20037;-65
2023/09/25 02:15:55;;;;;;;5.47;2.90;;;;;;;9.65;100.00;101882.78;6028620;28;20029;-65
2023/09/25 02:18:50;;;;;;;5.53;2.73;;;;;;;9.73;100.00;101900.78;6029572;28;20445;-64
2023/09/25 02:21:46;;;;;;;8.70;2.95;;;;;;;9.67;100.00;101887.97;6029204;28;20282;-65
2023/09/25 02:24:42;;;;;;;5.40;2.80;;;;;;;9.78;100.00;101910.09;6028870;28;20031;-64
2023/09/25 02:27:39;;;;;;;6.35;2.80;;;;;;;9.70;100.00;101883.31;6023118;28;20023;-65
2023/09/25 02:30:34;;;;;;;4.90;2.75;;;;;;;9.79;100.00;101897.66;6021569;28;20026;-65
2023/09/25 02:33:30;;;;;;;7.70;3.22;;;;;;;9.71;100.00;101884.13;6029303;28;20563;-65
2023/09/25 02:36:25;;;;;;;6.07;2.63;;;;;;;9.74;100.00;101891.88;6028363;28;20070;-64
2023/09/25 02:39:20;;;;;;;4.70;2.30;;;;;;;9.71;100.00;101890.28;6028861;28;20042;-65
2023/09/25 02:42:15;;;;;;;6.43;2.97;;;;;;;9.69;100.00;101892.22;6029020;28;20374;-65
2023/09/25 02:45:11;;;;;;;8.20;2.70;;;;;;;9.64;100.00;101874.97;6028434;28;20030;-65
2023/09/25 02:48:06;;;;;;;7.57;3.27;;;;;;;9.68;100.00;101887.00;6027212;28;20033;-64
2023/09/25 02:51:01;;;;;;;6.93;3.07;;;;;;;9.73;100.00;101882.25;6028708;28;20041;-65
2023/09/25 02:53:57;;;;;;;5.27;3.23;;;;;;;9.70;100.00;101858.63;6028021;28;20438;-65
2023/09/25 02:56:53;;;;;;;7.18;3.45;;;;;;;9.84;100.00;101880.47;6033931;28;20424;-65
2023/09/25 02:59:49;;;;;;;6.38;3.33;;;;;;;9.80;100.00;101868.44;6028304;28;20033;-65
2023/09/25 03:02:45;;;;;;;5.70;2.75;;;;;;;9.66;100.00;101854.50;6028488;28;20026;-65
2023/09/25 03:05:41;;;;;;;7.30;3.42;;;;;;;9.62;100.00;101866.28;6028048;28;20035;-65
2023/09/25 03:08:36;;;;;;;5.00;2.83;;;;;;;9.56;100.00;101849.88;6028000;28;20033;-65
2023/09/25 03:11:32;;;;;;;5.93;3.17;;;;;;;9.63;100.00;101860.00;6027201;28;20085;-65
2023/09/25 03:14:27;;;;;;;6.15;3.28;;;;;;;9.56;100.00;101855.19;6027911;28;20094;-63
2023/09/25 03:17:22;;;;;;;5.40;2.92;;;;;;;9.62;100.00;101874.22;6024509;28;20063;-62
2023/09/25 03:20:18;;;;;;;8.03;3.30;;;;;;;9.53;100.00;101860.69;6027865;28;20474;-63
2023/09/25 03:23:13;;;;;;;5.47;3.10;;;;;;;9.53;100.00;101859.84;6027432;28;20029;-63
2023/09/25 03:26:21;;;;;;;5.83;2.80;;;;;;;9.63;100.00;101870.59;6027117;28;20074;-63
2023/09/25 03:29:17;;;;;;;5.68;2.85;;;;;;;9.63;100.00;101873.25;6026416;28;20041;-62
2023/09/25 03:32:12;;;;;;;5.63;3.00;;;;;;;9.59;100.00;101876.13;6027056;28;20042;-63
2023/09/25 03:35:08;;;;;;;5.60;3.23;;;;;;;9.55;100.00;101856.13;6027036;28;20065;-62
2023/09/25 03:38:03;;;;;;;6.60;3.20;;;;;;;9.49;100.00;101867.16;6019423;28;20113;-63
2023/09/25 03:40:59;;;;;;;5.20;3.17;;;;;;;9.47;100.00;101876.16;6027414;28;20085;-62
2023/09/25 03:43:55;;;;;;;7.95;3.25;;;;;;;9.42;100.00;101863.28;6024660;28;20031;-63
2023/09/25 03:46:50;;;;;;;5.70;3.60;;;;;;;9.43;100.00;101886.13;6015399;28;20073;-63
2023/09/25 03:49:46;;;;;;;5.65;3.70;;;;;;;9.41;100.00;101866.88;6020092;28;20114;-62
2023/09/25 03:52:42;;;;;;;5.67;3.33;;;;;;;9.48;100.00;101873.41;6020909;28;20038;-62
2023/09/25 03:55:38;;;;;;;6.30;3.20;;;;;;;9.50;100.00;101871.50;6025122;28;20046;-63
2023/09/25 03:58:34;;;;;;;5.15;3.22;;;;;;;9.40;100.00;101870.47;6026913;28;20034;-63
2023/09/25 04:01:29;;;;;;;6.03;3.30;;;;;;;9.38;100.00;101868.88;6025228;28;20158;-63
2023/09/25 04:04:24;;;;;;;4.70;2.83;;;;;;;9.44;100.00;101881.69;6026598;28;20280;-63
2023/09/25 04:07:20;;;;;;;5.93;3.57;;;;;;;9.37;100.00;101864.56;6026444;28;20124;-63
2023/09/25 04:10:15;;;;;;;8.93;3.50;;;;;;;9.29;100.00;101857.19;6025858;28;20068;-62
2023/09/25 04:13:11;;;;;;;6.07;3.33;;;;;;;9.36;100.00;101879.59;6021071;28;20038;-63
2023/09/25 04:16:06;;;;;;;7.95;3.30;;;;;;;9.31;100.00;101876.44;6020780;28;20437;-62
2023/09/25 04:19:04;;;;;;;5.90;3.20;;;;;;;9.30;100.00;101880.03;6026539;28;20018;-63
2023/09/25 04:21:59;;;;;;;6.60;3.63;;;;;;;9.32;100.00;101885.22;6026225;28;20458;-62
2023/09/25 04:24:54;;;;;;;8.10;3.90;;;;;;;9.37;100.00;101870.72;6025989;28;20037;-63
2023/09/25 04:27:54;;;;;;;5.93;3.20;;;;;;;9.44;100.00;101882.53;6026129;28;20026;-62
2023/09/25 04:30:51;;;;;;;7.53;3.40;;;;;;;9.49;100.00;101891.00;6021896;28;20285;-62
2023/09/25 04:33:46;;;;;;;6.00;3.67;;;;;;;9.47;100.00;101884.97;6026574;28;20037;-62
2023/09/25 04:36:41;;;;;;;6.95;3.22;;;;;;;9.43;100.00;101875.53;6025730;28;20466;-62
2023/09/25 04:39:37;;;;;;;6.50;3.50;;;;;;;9.48;100.00;101893.75;6026565;28;20030;-62
2023/09/25 04:42:32;;;;;;;9.27;3.97;;;;;;;9.40;100.00;101880.22;6025509;28;20057;-62
2023/09/25 04:45:29;;;;;;;5.33;3.37;;;;;;;9.37;100.00;101880.44;6018978;28;20041;-62
2023/09/25 04:48:25;;;;;;;7.25;4.15;;;;;;;9.35;100.00;101887.63;6024112;28;20057;-62
2023/09/25 04:51:20;;;;;;;7.20;3.92;;;;;;;9.31;100.00;101888.81;6026175;28;20042;-63
2023/09/25 04:54:15;;;;;;;8.38;4.07;;;;;;;9.33;100.00;101900.13;6023694;28;20035;-63
2023/09/25 04:57:11;;;;;;;8.70;4.23;;;;;;;9.26;100.00;101897.09;6024220;28;20442;-63
2023/09/25 05:00:26;;;;;;;12.33;4.30;;;;;;;9.20;100.00;101905.47;6025714;28;20026;-63
2023/09/25 05:03:22;;;;;;;7.32;3.95;;;;;;;9.10;100.00;101901.78;6026126;28;20030;-63
2023/09/25 05:06:17;;;;;;;6.57;3.67;;;;;;;9.08;100.00;101903.66;6019239;28;20041;-63
2023/09/25 05:09:13;;;;;;;8.20;4.17;;;;;;;9.09;100.00;101905.38;6021004;28;20042;-63
2023/09/25 05:12:08;;;;;;;7.37;4.10;;;;;;;9.03;100.00;101891.69;6025499;28;20030;-63
2023/09/25 05:15:05;;;;;;;6.93;3.70;;;;;;;9.01;100.00;101905.06;6016289;28;20034;-63
2023/09/25 05:18:02;;;;;;;7.03;4.32;;;;;;;8.94;100.00;101893.22;6010276;28;20701;-64
2023/09/25 05:20:58;;;;;;;11.15;4.53;;;;;;;9.06;100.00;101907.38;6024836;28;20041;-63
2023/09/25 05:23:53;;;;;;;8.57;4.35;;;;;;;8.98;100.00;101890.25;6024480;28;20030;-63
2023/09/25 05:26:48;;;;;;;7.67;5.23;;;;;;;8.97;100.00;101887.69;6020523;28;20386;-64
2023/09/25 05:29:45;;;;;;;10.73;4.63;;;;;;;9.06;100.00;101908.22;6024869;28;20295;-64
2023/09/25 05:32:43;;;;;;;9.10;4.70;;;;;;;9.11;100.00;101913.19;6018105;28;20109;-64
2023/09/25 05:35:39;;;;;;;7.95;4.68;;;;;;;9.12;100.00;101915.72;6024995;28;20060;-64
2023/09/25 05:38:34;;;;;;;8.27;4.50;;;;;;;9.14;100.00;101911.16;6018183;28;20043;-64
2023/09/25 05:41:29;;;;;;;8.43;4.80;;;;;;;9.18;100.00;101902.06;6018380;28;20239;-64
2023/09/25 05:44:25;;;;;;;10.43;4.30;;;;;;;9.36;100.00;101916.66;6025310;28;20382;-64
2023/09/25 05:47:20;;;;;;;6.57;3.80;;;;;;;9.44;100.00;101902.88;6021863;28;20050;-63
2023/09/25 05:50:16;;;;;;;7.32;3.97;;;;;;;9.54;100.00;101915.34;6017795;28;20042;-63
2023/09/25 05:53:11;;;;;;;8.50;4.22;;;;;;;9.64;100.00;101926.13;6015881;28;20063;-63
2023/09/25 05:56:06;;;;;;;8.87;4.60;;;;;;;9.67;100.00;101909.16;6021204;28;20044;-64
2023/09/25 05:59:02;;;;;;;10.40;4.60;;;;;;;9.76;100.00;101904.03;6019464;28;20034;-63
2023/09/25 06:01:58;;;;;;;8.02;4.30;;;;;;;10.03;100.00;101917.91;6016416;28;20281;-63
2023/09/25 06:04:54;;;;;;;6.33;3.93;;;;;;;10.27;100.00;101920.59;6022662;28;20093;-63
2023/09/25 06:07:49;;;;;;;7.13;4.05;;;;;;;10.36;100.00;101911.09;6019954;28;20023;-63
2023/09/25 06:10:45;;;;;;;7.63;3.73;;;;;;;10.71;100.00;101914.56;6009638;28;20049;-63
2023/09/25 06:13:40;;;;;;;7.60;3.50;;;;;;;10.85;100.00;101910.84;6020853;28;20914;-62
2023/09/25 06:16:36;;;;;;;6.27;3.73;;;;;;;10.95;100.00;101906.56;6019505;28;20042;-63
2023/09/25 06:19:31;;;;;;;7.03;3.20;;;;;;;11.31;100.00;101919.59;6008873;28;20482;-62
2023/09/25 06:22:27;;;;;;;5.80;3.13;;;;;;;11.27;100.00;101926.13;6020317;28;20097;-62
2023/09/25 06:25:24;;;;;;;5.28;3.40;;;;;;;11.53;100.00;101938.16;6010764;28;20077;-63
2023/09/25 06:28:23;;;;;;;7.20;3.55;;;;;;;11.66;100.00;101930.91;6020671;28;20121;-63
2023/09/25 06:31:19;;;;;;;7.22;3.10;;;;;;;11.66;100.00;101943.38;6014881;28;20039;-62
2023/09/25 06:34:14;;;;;;;6.30;3.00;;;;;;;11.53;100.00;101939.97;6011160;28;20402;-62
2023/09/25 06:37:10;;;;;;;6.43;3.90;;;;;;;11.58;100.00;101949.28;6022174;28;20172;-63
2023/09/25 06:40:09;;;;;;;6.45;3.72;;;;;;;11.75;100.00;101935.50;6018986;28;20038;-63
2023/09/25 06:43:04;;;;;;;5.60;3.58;;;;;;;11.70;100.00;101943.03;6019868;28;20393;-63
2023/09/25 06:46:00;;;;;;;5.70;3.43;;;;;;;11.73;100.00;101916.19;6014788;28;20069;-63
2023/09/25 06:48:55;;;;;;;7.13;3.53;;;;;;;12.03;100.00;101920.00;6017922;28;20030;-63
2023/09/25 06:51:50;;;;;;;10.07;4.07;;;;;;;12.06;100.00;101935.69;6020119;28;20038;-63
2023/09/25 06:54:45;;;;;;;5.97;3.50;;;;;;;12.06;100.00;101939.19;6027979;28;20041;-63
2023/09/25 06:57:41;;;;;;;8.80;3.97;;;;;;;12.19;100.00;101949.66;6027682;28;20039;-63
2023/09/25 07:00:36;;;;;;;6.20;3.63;;;;;;;12.05;100.00;101942.81;6024729;28;20047;-63
2023/09/25 07:03:32;;;;;;;7.50;3.73;;;;;;;12.22;100.00;101952.06;6015789;28;20486;-62
2023/09/25 07:06:27;;;;;;;5.38;3.45;;;;;;;12.51;100.00;101940.72;6023238;28;20030;-63
2023/09/25 07:09:22;;;;;;;7.13;4.13;;;;;;;12.65;100.00;101942.22;6008752;28;20482;-64
2023/09/25 07:12:18;;;;;;;4.60;3.10;;;;;;;13.05;100.00;101953.81;6020506;28;20034;-64
2023/09/25 07:15:13;;;;;;;5.50;2.80;;;;;;;13.23;100.00;101943.44;6008211;28;20274;-64
2023/09/25 07:18:09;;;;;;;6.82;2.97;;;;;;;13.13;100.00;101931.88;6018362;28;20058;-63
2023/09/25 07:21:05;;;;;;;6.65;2.83;;;;;;;13.46;100.00;101949.41;6019724;28;20077;-63
2023/09/25 07:24:00;;;;;;;6.13;3.42;;;;;;;13.62;97.76;101923.09;6019172;28;20054;-64
2023/09/25 07:26:56;;;;;;;7.43;3.10;;;;;;;13.74;95.80;101932.69;6021670;28;20041;-63
2023/09/25 07:29:52;;;;;;;7.07;2.95;;;;;;;13.78;97.10;101938.59;6019556;28;20061;-64
2023/09/25 07:32:48;;;;;;;6.80;3.50;;;;;;;13.90;96.29;101930.34;6017545;28;20515;-64
2023/09/25 07:35:44;;;;;;;5.88;2.90;;;;;;;14.07;94.51;101948.34;6021361;28;20030;-63
2023/09/25 07:38:39;;;;;;;6.60;3.37;;;;;;;14.47;93.57;101931.38;6016670;28;20034;-64
2023/09/25 07:41:35;;;;;;;10.00;4.03;;;;;;;14.56;91.87;101928.72;6019468;28;20288;-64
2023/09/25 07:44:33;;;;;;;6.90;2.83;;;;;;;14.52;90.41;101945.13;6023548;28;20053;-64
2023/09/25 07:47:29;;;;;;;5.57;2.97;;;;;;;14.61;90.23;101944.31;6019475;28;20478;-64
2023/09/25 07:50:25;;;;;;;6.63;2.88;;;;;;;14.72;89.93;101925.47;6013724;28;20053;-63
2023/09/25 07:53:20;;;;;;;6.00;3.00;;;;;;;14.89;89.56;101938.91;6019631;28;20170;-64
2023/09/25 07:56:16;;;;;;;6.50;2.63;;;;;;;15.29;89.12;101941.34;6022977;28;20038;-64
2023/09/25 07:59:11;;;;;;;6.17;2.97;;;;;;;15.33;88.38;101934.69;6018690;28;20085;-64
2023/09/25 08:02:07;;;;;;;5.70;2.70;;;;;;;15.32;86.63;101945.56;6021568;28;20546;-64
2023/09/25 08:05:05;;;;;;;8.95;2.80;;;;;;;15.41;86.77;101939.31;6015307;28;20118;-64
2023/09/25 08:08:01;;;;;;;7.90;3.28;;;;;;;15.22;85.45;101936.72;6017700;28;20042;-64
2023/09/25 08:10:56;;;;;;;5.05;3.20;;;;;;;15.30;85.04;101935.00;6021253;28;20030;-63
2023/09/25 08:13:55;;;;;;;6.55;3.00;;;;;;;15.64;84.75;101950.50;6021409;28;20030;-63
2023/09/25 08:16:51;;;;;;;5.45;2.53;;;;;;;15.72;84.26;101958.63;6021649;28;20049;-64
2023/09/25 08:19:50;;;;;;;8.70;2.90;;;;;;;15.99;83.49;101950.56;6019137;28;20054;-64
2023/09/25 08:22:50;;;;;;;6.30;2.90;;;;;;;16.02;82.46;101943.09;6020326;28;20293;-64
2023/09/25 08:25:45;;;;;;;5.88;2.75;;;;;;;16.05;82.35;101947.31;6017206;28;20042;-64
2023/09/25 08:28:40;;;;;;;8.27;3.13;;;;;;;16.27;81.90;101941.50;6024128;28;20053;-63
2023/09/25 08:31:37;;;;;;;6.53;3.23;;;;;;;16.32;81.80;101955.28;6022028;28;20057;-64
2023/09/25 08:34:33;;;;;;;9.45;3.88;;;;;;;16.42;82.45;101953.34;6011215;28;20509;-64
2023/09/25 08:37:29;;;;;;;6.65;3.08;;;;;;;16.49;79.72;101945.56;6014848;28;20038;-64
2023/09/25 08:40:24;;;;;;;9.77;3.42;;;;;;;16.88;79.97;101940.69;6018596;28;20546;-64
2023/09/25 08:43:21;;;;;;;8.80;3.25;;;;;;;16.98;77.45;101944.13;6024170;28;20397;-64
2023/09/25 08:46:18;;;;;;;10.63;3.92;;;;;;;17.17;79.08;101949.28;6021688;28;20050;-64
2023/09/25 08:49:13;;;;;;;9.98;3.72;;;;;;;17.08;79.12;101947.53;6020578;28;20510;-64
2023/09/25 08:52:08;;;;;;;5.47;2.90;;;;;;;17.25;79.92;101927.88;6015271;28;20035;-64
2023/09/25 08:55:05;;;;;;;8.67;2.70;;;;;;;17.51;77.00;101933.19;6010467;28;20470;-64
2023/09/25 08:58:00;;;;;;;6.68;2.90;;;;;;;17.35;75.15;101931.28;6015298;28;20042;-64
2023/09/25 09:00:58;;;;;;;6.18;2.30;;;;;;;17.36;74.62;101919.56;6019200;28;20053;-64
2023/09/25 09:03:54;;;;;;;5.53;2.38;;;;;;;17.68;73.63;101925.09;6022675;28;20036;-64
2023/09/25 09:06:50;;;;;;;3.80;2.15;;;;;;;18.03;72.29;101909.72;6005239;28;20118;-64
2023/09/25 09:09:46;;;;;;;6.40;2.30;;;;;;;18.50;69.45;101920.72;6012842;28;20389;-64
2023/09/25 09:12:52;;;;;;;3.75;2.13;;;;;;;18.34;67.96;101908.09;6014922;28;20038;-65
2023/09/25 09:15:48;;;;;;;4.30;1.90;;;;;;;18.67;68.53;101901.72;6017144;28;20031;-64
2023/09/25 09:18:44;;;;;;;4.03;1.60;;;;;;;18.89;65.21;101922.53;6018151;28;20022;-64
2023/09/25 09:21:44;;;;;;;4.05;1.67;;;;;;;19.36;62.95;101908.28;6019179;28;20282;-64
2023/09/25 09:24:39;;;;;;;;;;;;;;;19.41;62.16;101916.72;6014588;28;20041;-65
2023/09/25 09:27:35;;;;;;;4.85;1.70;;;;;;;19.37;60.26;101918.91;6020898;28;19913;-64
2023/09/25 09:30:30;;;;;;;3.27;1.50;;;;;;;19.04;59.38;101903.88;6017134;28;20097;-64
2023/09/25 09:33:29;;;;;;;4.90;1.70;;;;;;;19.04;58.40;101890.41;6024550;28;20762;-64
2023/09/25 09:36:24;;;;;;;4.40;1.67;;;;;;;19.41;57.58;101889.81;6016866;28;20035;-64
2023/09/25 09:39:22;;;;;;;3.73;1.40;;;;;;;19.49;55.52;101911.28;6012574;28;20034;-64
2023/09/25 09:42:17;;;;;;;3.17;1.30;;;;;;;19.38;53.86;101898.22;6009557;28;20642;-64
2023/09/25 09:45:13;;;;;;;3.70;1.45;;;;;;;19.41;54.17;101905.94;6014163;28;20061;-64
2023/09/25 09:48:10;;;;;;;2.30;1.25;;;;;;;19.60;53.59;101906.38;6018288;28;20174;-64
2023/09/25 09:51:09;;;;;;;2.97;1.38;;;;;;;20.05;54.84;101889.47;6014976;28;20027;-64
2023/09/25 09:54:05;;;;;;;2.40;1.27;;;;;;;20.39;52.90;101894.44;6018991;28;20486;-65
2023/09/25 09:57:02;;;;;;;3.30;1.50;;;;;;;19.94;53.16;101887.19;6024065;28;20069;-65
2023/09/25 09:59:57;;;;;;;3.20;1.40;;;;;;;20.01;53.07;101885.44;6013874;28;20486;-64
2023/09/25 10:02:52;;;;;;;4.35;1.50;;;;;;;20.09;52.72;101882.69;6018580;28;20022;-65
2023/09/25 10:05:48;;;;;;;3.25;1.25;;;;;;;20.12;52.82;101876.94;6017901;28;20405;-65
2023/09/25 10:09:00;;;;;;;5.13;1.35;;;;;;;19.87;51.10;101879.97;6016329;28;20122;-64
2023/09/25 10:11:55;;;;;;;3.53;1.50;;;;;;;20.06;51.36;101880.34;6021143;28;20500;-64
2023/09/25 10:14:52;;;;;;;3.85;1.60;;;;;;;19.83;50.91;101881.34;6014683;28;20069;-63
2023/09/25 10:17:48;;;;;;;7.10;1.80;;;;;;;19.90;51.93;101860.75;6013953;28;20049;-64
2023/09/25 10:20:45;;;;;;;4.13;1.70;;;;;;;19.72;51.59;101882.59;6019897;28;20039;-65
2023/09/25 10:23:46;;;;;;;4.72;1.65;;;;;;;19.96;52.17;101860.06;6020423;28;20508;-65
2023/09/25 10:26:42;;;;;;;7.80;2.35;;;;;;;19.60;51.66;101867.84;6017716;28;20046;-64
2023/09/25 10:29:38;;;;;;;7.03;2.13;;;;;;;19.91;53.01;101882.16;6023889;28;20093;-64
2023/09/25 10:32:37;;;;;;;3.67;1.80;;;;;;;19.91;51.84;101866.00;6014251;28;20480;-65
2023/09/25 10:35:49;;;;;;;3.88;1.33;;;;;;;20.26;51.86;101861.03;6014367;28;20034;-64
2023/09/25 10:38:52;;;;;;;4.32;1.67;;;;;;;20.40;49.48;101858.41;6020093;28;20109;-65
2023/09/25 10:41:57;;;;;;;4.68;1.50;;;;;;;20.28;47.82;101861.69;6020354;28;20031;-64
2023/09/25 10:44:53;;;;;;;3.05;1.40;;;;;;;20.57;47.60;101869.88;6015438;28;20033;-64
2023/09/25 10:47:48;;;;;;;6.90;1.57;;;;;;;20.20;48.19;101868.81;6014054;28;20339;-65
2023/09/25 10:50:46;;;;;;;3.70;1.40;;;;;;;20.23;48.94;101864.06;6015182;28;20485;-64
2023/09/25 10:53:43;;;;;;;2.90;1.48;;;;;;;20.48;48.77;101866.41;6017768;28;20093;-64
2023/09/25 10:56:39;;;;;;;4.07;1.45;;;;;;;20.84;47.92;101858.47;6020848;28;20066;-65
2023/09/25 10:59:34;;;;;;;3.28;1.60;;;;;;;20.80;47.33;101857.16;6013711;28;20485;-65
2023/09/25 11:02:30;;;;;;;4.53;1.47;;;;;;;20.87;47.74;101849.19;6018919;28;20086;-64
2023/09/25 11:05:26;;;;;;;2.92;1.58;;;;;;;20.95;48.66;101859.88;6032681;28;20373;-65
2023/09/25 11:08:21;;;;;;;4.28;1.50;;;;;;;21.17;46.85;101854.38;6022285;28;20038;-64
2023/09/25 11:11:17;;;;;;;1.63;1.00;;;;;;;21.46;46.55;101845.44;6026351;28;20046;-64
2023/09/25 11:14:13;;;;;;;2.17;1.10;;;;;;;21.52;45.28;101846.53;6021883;28;20382;-65
2023/09/25 11:17:08;;;;;;;3.83;1.48;;;;;;;21.36;44.64;101843.03;6013675;28;20027;-65
2023/09/25 11:20:18;;;;;;;3.20;1.33;;;;;;;20.88;45.30;101829.25;6019266;28;20038;-64
2023/09/25 11:23:17;;;;;;;3.53;1.60;;;;;;;20.59;46.60;101825.53;6025050;28;20029;-65
2023/09/25 11:26:12;;;;;;;2.88;1.20;;;;;;;20.53;47.33;101831.66;6023013;28;20042;-64
2023/09/25 11:29:08;;;;;;;3.17;1.43;;;;;;;20.83;47.48;101843.31;6026446;28;20548;-64
2023/09/25 11:32:04;;;;;;;2.72;1.35;;;;;;;20.89;45.61;101815.59;6020129;28;20454;-65
2023/09/25 11:34:59;;;;;;;1.52;1.00;;;;;;;21.22;46.49;101830.41;6016543;28;20023;-64
2023/09/25 11:37:57;;;;;;;2.30;1.13;;;;;;;21.31;46.02;101818.47;6014113;28;20035;-65
2023/09/25 11:40:55;;;;;;;3.88;1.20;;;;;;;21.22;45.38;101816.91;6018051;28;20046;-64
2023/09/25 11:43:50;;;;;;;3.08;1.27;;;;;;;21.37;46.25;101814.16;6023797;28;20043;-65
2023/09/25 11:46:46;;;;;;;2.72;1.20;;;;;;;20.98;47.41;101824.44;6018390;28;20134;-65
2023/09/25 11:49:41;;;;;;;5.20;1.47;;;;;;;21.01;47.83;101829.47;6018080;28;20608;-65
2023/09/25 11:52:37;;;;;;;3.00;1.60;;;;;;;20.98;46.64;101813.66;6019685;28;20038;-65
2023/09/25 11:55:33;;;;;;;3.35;1.42;;;;;;;20.94;46.68;101813.19;6025603;28;20026;-64
2023/09/25 11:58:28;;;;;;;2.42;1.17;;;;;;;21.29;45.95;101801.63;6018957;28;20520;-64
2023/09/25 12:01:23;;;;;;;2.57;1.30;;;;;;;21.40;46.52;101816.50;6026791;28;20041;-64
2023/09/25 12:04:19;;;;;;;3.53;1.63;;;;;;;21.00;45.65;101811.59;6021216;28;20323;-64
2023/09/25 12:07:14;;;;;;;3.77;1.40;;;;;;;21.02;46.96;101813.09;6011828;28;20027;-64
2023/09/25 12:10:15;;;;;;;2.27;1.10;;;;;;;21.19;46.98;101811.91;6017352;28;20282;-64
2023/09/25 12:13:11;;;;;;;3.70;1.38;;;;;;;21.59;45.92;101796.16;6013472;28;20116;-64
2023/09/25 12:16:06;;;;;;;3.57;1.20;;;;;;;22.10;45.93;101784.19;6018975;28;20443;-64
2023/09/25 12:19:01;;;;;;;2.80;1.33;;;;;;;21.60;44.32;101781.63;6021789;28;20041;-65
2023/09/25 12:21:57;;;;;;;1.93;1.13;;;;;;;22.01;44.99;101789.97;6019899;28;20022;-65
2023/09/25 12:24:52;;;;;;;3.15;1.20;;;;;;;21.98;44.74;101782.22;6013367;28;20274;-64
2023/09/25 12:27:48;;;;;;;2.58;1.48;;;;;;;21.67;45.62;101777.97;6022728;28;20034;-65
2023/09/25 12:30:43;;;;;;;4.67;1.60;;;;;;;21.56;45.03;101781.16;6013838;28;20035;-64
2023/09/25 12:33:38;;;;;;;2.57;1.40;;;;;;;21.53;45.62;101780.69;6013102;28;20779;-63
2023/09/25 12:36:34;;;;;;;2.20;1.20;;;;;;;21.17;45.71;101772.63;6017798;28;20034;-65
2023/09/25 12:39:29;;;;;;;2.22;1.20;;;;;;;21.21;45.90;101788.25;6016832;28;20066;-64
2023/09/25 12:42:24;;;;;;;4.07;1.40;;;;;;;20.90;45.78;101778.69;6015968;28;20041;-65
2023/09/25 12:45:20;;;;;;;3.23;1.40;;;;;;;21.03;46.51;101778.84;6014761;28;20559;-65
2023/09/25 12:48:15;;;;;;;2.77;1.40;;;;;;;21.53;45.60;101769.91;6015668;28;20381;-65
2023/09/25 12:51:10;;;;;;;2.47;1.20;;;;;;;21.54;45.27;101755.38;6018336;28;20037;-64
2023/09/25 12:54:06;;;;;;;2.40;1.27;;;;;;;22.17;44.23;101757.25;6016580;28;20332;-65
2023/09/25 12:57:01;;;;;;;2.27;1.30;;;;;;;21.87;43.98;101751.19;6021951;28;20084;-65
2023/09/25 12:59:56;;;;;;;4.27;1.50;;;;;;;22.01;44.49;101755.66;6019906;28;20297;-64
2023/09/25 13:02:53;;;;;;;4.40;1.60;;;;;;;21.46;43.78;101731.22;6014370;28;20046;-65
2023/09/25 13:05:49;;;;;;;4.80;1.58;;;;;;;21.31;44.85;101745.59;6020454;28;20065;-64
2023/09/25 13:08:44;;;;;;;3.13;1.63;;;;;;;21.43;44.86;101743.25;6019576;28;20038;-64
2023/09/25 13:11:40;;;;;;;6.80;1.40;;;;;;;21.52;44.47;101735.84;6018368;28;20034;-65
2023/09/25 13:14:36;;;;;;;3.03;1.38;;;;;;;21.56;45.02;101726.31;6014374;28;20039;-65
2023/09/25 13:17:31;;;;;;;3.20;1.23;;;;;;;22.08;44.36;101737.63;6007503;28;20038;-64
2023/09/25 13:20:26;;;;;;;1.97;1.20;;;;;;;22.46;42.26;101730.00;6015371;28;20030;-65
2023/09/25 13:23:22;;;;;;;2.70;1.30;;;;;;;22.31;42.93;101723.88;6019692;28;20462;-65
2023/09/25 13:26:18;;;;;;;3.20;1.20;;;;;;;22.17;42.72;101711.31;6020447;28;20303;-65
2023/09/25 13:29:13;;;;;;;3.78;1.27;;;;;;;22.12;43.54;101727.28;6024844;28;20038;-64
2023/09/25 13:32:08;;;;;;;4.13;1.37;;;;;;;21.81;43.72;101717.66;6015489;28;20081;-64
2023/09/25 13:35:04;;;;;;;3.07;1.63;;;;;;;21.69;44.65;101715.66;6023207;28;20513;-65
2023/09/25 13:37:59;;;;;;;3.17;1.80;;;;;;;21.99;43.77;101708.28;6019730;28;20039;-64